Time;durP1;ratioP1;P1;durP2;ratioP2;P2;SDS_P1;SDS_P2;PMS_P1;PMS_P2;Temp;Humidity;BMP_temperature;BMP_pressure;BME280_temperature;BME280_humidity;BME280_pressure;Samples;Min_cycle;Max_cycle;Signal;HPM_P1;HPM_P2
2021/06/15 00:01:01;;;;;;;21.00;13.40;;;15.40;99.90;;;;;;4967142;28;20218;-86
2021/06/15 00:03:28;;;;;;;18.27;13.57;;;15.40;99.90;;;;;;4975395;28;20629;-87
2021/06/15 00:05:55;;;;;;;19.43;13.67;;;15.40;99.90;;;;;;4975413;28;20254;-86
2021/06/15 00:08:22;;;;;;;23.40;14.17;;;15.40;99.90;;;;;;4974884;28;20759;-87
2021/06/15 00:10:49;;;;;;;20.03;12.87;;;15.40;99.90;;;;;;4975039;28;20207;-86
2021/06/15 00:13:17;;;;;;;21.60;13.90;;;15.40;99.90;;;;;;4956076;28;20211;-87
2021/06/15 00:15:47;;;;;;;22.23;14.23;;;15.40;99.90;;;;;;4961625;28;20207;-87
2021/06/15 00:18:15;;;;;;;17.73;13.73;;;15.40;99.90;;;;;;4970815;28;20318;-87
2021/06/15 00:20:42;;;;;;;20.43;13.13;;;15.40;99.90;;;;;;4974144;28;20210;-87
2021/06/15 00:23:09;;;;;;;25.43;14.70;;;15.40;99.90;;;;;;4971860;28;20195;-86
2021/06/15 00:25:36;;;;;;;22.03;14.13;;;15.40;99.90;;;;;;4975454;28;20265;-87
2021/06/15 00:28:05;;;;;;;19.23;14.63;;;15.30;99.90;;;;;;4968059;28;20330;-87
2021/06/15 00:30:35;;;;;;;22.63;14.03;;;15.30;99.90;;;;;;4955380;28;20232;-87
2021/06/15 00:33:02;;;;;;;19.93;14.00;;;15.30;99.90;;;;;;4955907;29;20195;-87
2021/06/15 00:35:29;;;;;;;21.47;15.00;;;15.30;99.90;;;;;;4955482;29;20202;-86
2021/06/15 00:37:56;;;;;;;21.30;14.37;;;15.20;99.90;;;;;;4974054;28;20202;-86
2021/06/15 00:40:24;;;;;;;22.87;15.23;;;15.20;99.90;;;;;;4973770;28;20199;-86
2021/06/15 00:42:51;;;;;;;22.83;15.47;;;15.20;99.90;;;;;;4959938;28;20206;-86
2021/06/15 00:45:21;;;;;;;26.27;15.03;;;15.20;99.90;;;;;;4963646;28;20801;-86
2021/06/15 00:47:50;;;;;;;25.57;16.53;;;15.20;99.90;;;;;;4971936;28;20226;-86
2021/06/15 00:50:18;;;;;;;21.80;15.23;;;15.10;99.90;;;;;;4966548;28;20266;-88
2021/06/15 00:52:46;;;;;;;23.87;16.40;;;15.10;99.90;;;;;;4975161;28;20202;-88
2021/06/15 00:55:14;;;;;;;22.63;16.67;;;15.10;99.90;;;;;;4973887;28;20203;-90
2021/06/15 00:57:41;;;;;;;24.93;15.50;;;15.10;99.90;;;;;;4974209;28;20214;-90
2021/06/15 01:00:10;;;;;;;25.43;16.40;;;15.10;99.90;;;;;;4969945;28;20203;-90
2021/06/15 01:02:38;;;;;;;22.00;15.80;;;15.00;99.90;;;;;;4954534;28;20293;-86
2021/06/15 01:05:09;;;;;;;25.40;15.57;;;15.00;99.90;;;;;;4966496;28;20218;-87
2021/06/15 01:07:46;;;;;;;23.57;15.50;;;14.90;99.90;;;;;;4955988;29;20203;-89
2021/06/15 01:10:22;;;;;;;24.60;16.17;;;14.90;99.90;;;;;;4975460;28;20206;-85
2021/06/15 01:13:04;;;;;;;26.97;17.13;;;14.80;99.90;;;;;;4967218;28;20202;-84
2021/06/15 01:15:40;;;;;;;26.40;17.37;;;14.80;99.90;;;;;;4954736;29;20198;-84
2021/06/15 01:18:11;;;;;;;31.23;17.87;;;14.80;99.90;;;;;;4955054;28;20293;-84
2021/06/15 01:20:42;;;;;;;28.53;18.30;;;14.80;99.90;;;;;;4961944;28;20314;-84
2021/06/15 01:23:31;;;;;;;32.37;19.07;;;14.90;99.90;;;;;;4956063;28;20227;-84
2021/06/15 01:26:04;;;;;;;32.13;19.47;;;14.90;99.90;;;;;;4954222;29;20274;-84
2021/06/15 01:28:37;;;;;;;35.30;20.43;;;15.00;99.90;;;;;;4954416;29;20652;-85
2021/06/15 01:31:11;;;;;;;33.30;20.80;;;15.00;99.90;;;;;;4954363;28;20239;-85
2021/06/15 01:33:43;;;;;;;36.90;20.57;;;15.00;99.90;;;;;;4955895;29;20282;-84
2021/06/15 01:36:14;;;;;;;36.93;22.23;;;15.10;99.90;;;;;;4962881;28;20203;-85
2021/06/15 01:38:50;;;;;;;36.90;21.07;;;15.10;99.90;;;;;;4957372;28;20626;-85
2021/06/15 01:41:25;;;;;;;37.90;21.10;;;15.20;99.90;;;;;;4954335;29;20278;-84
2021/06/15 01:43:58;;;;;;;38.00;21.50;;;15.20;99.90;;;;;;4953975;28;20241;-84
2021/06/15 01:46:31;;;;;;;41.93;22.60;;;15.30;99.90;;;;;;4953277;29;20231;-84
2021/06/15 01:49:05;;;;;;;42.43;23.57;;;15.30;99.90;;;;;;4963571;28;20253;-85
2021/06/15 01:51:33;;;;;;;42.63;23.13;;;15.40;99.90;;;;;;4972122;28;20241;-84
2021/06/15 01:54:09;;;;;;;40.33;22.53;;;15.40;99.90;;;;;;4966817;28;20285;-85
2021/06/15 01:56:38;;;;;;;34.67;21.57;;;15.40;99.90;;;;;;4964390;28;20744;-84
2021/06/15 01:59:09;;;;;;;41.33;22.80;;;15.50;99.90;;;;;;4956206;29;20227;-83
2021/06/15 02:01:40;;;;;;;39.07;23.30;;;15.50;99.90;;;;;;4963691;28;20615;-85
2021/06/15 02:04:07;;;;;;;36.10;22.90;;;15.50;99.90;;;;;;4959184;28;20203;-84
2021/06/15 02:06:36;;;;;;;36.27;22.53;;;15.60;99.90;;;;;;4955709;29;20329;-84
2021/06/15 02:09:05;;;;;;;37.03;22.47;;;15.60;99.90;;;;;;4961569;28;20198;-85
2021/06/15 02:11:33;;;;;;;38.43;21.53;;;15.60;99.90;;;;;;4975442;28;20265;-84
2021/06/15 02:14:03;;;;;;;38.80;21.87;;;15.50;99.90;;;;;;4974840;28;20297;-84
2021/06/15 02:16:31;;;;;;;36.50;22.47;;;15.50;99.90;;;;;;4975092;28;20237;-84
2021/06/15 02:18:59;;;;;;;36.80;22.00;;;15.40;99.90;;;;;;4955894;28;20708;-84
2021/06/15 02:21:28;;;;;;;36.50;21.53;;;15.40;99.90;;;;;;4955967;28;20211;-85
2021/06/15 02:23:59;;;;;;;39.83;23.50;;;15.40;99.90;;;;;;4958261;28;20339;-84
2021/06/15 02:26:27;;;;;;;39.40;23.97;;;15.40;99.90;;;;;;4972331;28;20250;-84
2021/06/15 02:28:54;;;;;;;42.90;23.37;;;15.50;99.90;;;;;;4961783;28;20227;-85
2021/06/15 02:31:25;;;;;;;36.33;22.17;;;15.60;99.90;;;;;;4967251;28;20241;-85
2021/06/15 02:33:56;;;;;;;36.37;23.03;;;15.60;99.90;;;;;;4938852;29;20242;-85
2021/06/15 02:36:26;;;;;;;40.27;23.90;;;15.60;99.90;;;;;;4955629;29;20277;-84
2021/06/15 02:38:55;;;;;;;37.47;23.30;;;15.60;99.90;;;;;;4968823;28;20199;-84
2021/06/15 02:41:24;;;;;;;40.17;23.30;;;15.60;99.90;;;;;;4973766;28;20731;-85
2021/06/15 02:43:57;;;;;;;39.30;22.73;;;15.50;99.90;;;;;;4973788;28;20250;-85
2021/06/15 02:46:29;;;;;;;37.53;23.37;;;15.50;99.90;;;;;;4955554;28;20306;-85
2021/06/15 02:49:00;;;;;;;39.77;24.77;;;15.50;99.90;;;;;;4955641;29;20227;-85
2021/06/15 02:51:31;;;;;;;36.43;22.83;;;15.50;99.90;;;;;;4955878;28;20267;-84
2021/06/15 02:54:06;;;;;;;41.97;24.00;;;15.40;99.90;;;;;;4955624;28;20203;-84
2021/06/15 02:56:36;;;;;;;38.07;23.00;;;15.40;99.90;;;;;;4955799;28;20199;-84
2021/06/15 02:59:03;;;;;;;36.90;23.10;;;15.50;99.90;;;;;;4973681;28;20249;-84
2021/06/15 03:01:30;;;;;;;38.70;23.63;;;15.50;99.90;;;;;;4973538;28;20261;-84
2021/06/15 03:03:59;;;;;;;38.53;22.67;;;15.60;99.90;;;;;;4965290;28;20297;-84
2021/06/15 03:06:26;;;;;;;38.23;23.90;;;15.60;99.90;;;;;;4973922;28;20226;-85
2021/06/15 03:08:52;;;;;;;42.67;24.23;;;15.60;99.90;;;;;;4956667;28;20245;-84
2021/06/15 03:11:24;;;;;;;38.33;23.33;;;15.60;99.90;;;;;;4969268;28;20203;-85
2021/06/15 03:13:56;;;;;;;40.80;24.80;;;15.60;99.90;;;;;;4973478;28;20258;-84
2021/06/15 03:16:26;;;;;;;44.70;24.23;;;15.60;99.90;;;;;;4950115;29;20740;-84
2021/06/15 03:19:02;;;;;;;39.23;23.60;;;15.70;99.90;;;;;;4954374;29;20227;-85
2021/06/15 03:21:33;;;;;;;42.17;24.30;;;15.60;99.90;;;;;;4955017;29;20221;-84
2021/06/15 03:24:05;;;;;;;36.97;24.03;;;15.70;99.90;;;;;;4973503;28;20547;-85
2021/06/15 03:26:39;;;;;;;38.07;24.17;;;15.70;99.90;;;;;;4973859;28;20266;-84
2021/06/15 03:29:40;;;;;;;38.30;24.53;;;15.70;99.90;;;;;;4954698;29;20282;-84
2021/06/15 03:32:10;;;;;;;39.30;24.33;;;15.60;99.90;;;;;;4954883;28;20297;-85
2021/06/15 03:34:43;;;;;;;37.33;24.23;;;15.60;99.90;;;;;;4972691;28;20230;-84
2021/06/15 03:37:15;;;;;;;38.87;23.60;;;15.70;99.90;;;;;;4972950;28;20199;-84
2021/06/15 03:39:43;;;;;;;35.83;22.70;;;15.70;99.90;;;;;;4971736;28;20203;-84
2021/06/15 03:42:11;;;;;;;36.20;23.23;;;15.70;99.90;;;;;;4954350;29;20203;-84
2021/06/15 03:44:38;;;;;;;36.57;23.37;;;15.70;99.90;;;;;;4970072;28;20243;-85
2021/06/15 03:47:07;;;;;;;34.10;23.57;;;15.70;99.90;;;;;;4961374;28;20250;-84
2021/06/15 03:49:34;;;;;;;35.87;23.03;;;15.70;99.90;;;;;;4973131;28;20222;-84
2021/06/15 03:52:04;;;;;;;36.27;22.30;;;15.70;99.90;;;;;;4973293;28;20616;-84
2021/06/15 03:54:33;;;;;;;30.77;22.30;;;15.80;99.90;;;;;;4961039;28;20570;-85
2021/06/15 03:57:02;;;;;;;34.77;21.83;;;15.80;99.90;;;;;;4954175;29;20203;-84
2021/06/15 03:59:32;;;;;;;35.50;21.80;;;15.80;99.90;;;;;;4954567;28;20270;-84
2021/06/15 04:02:06;;;;;;;33.10;21.60;;;15.80;99.90;;;;;;4956981;28;20213;-84
2021/06/15 04:04:38;;;;;;;35.20;21.63;;;15.80;99.90;;;;;;4972279;28;20234;-84
2021/06/15 04:07:13;;;;;;;38.17;22.87;;;15.80;99.90;;;;;;4955702;28;20277;-85
2021/06/15 04:09:41;;;;;;;33.27;22.17;;;15.80;99.90;;;;;;4954163;28;20234;-85
2021/06/15 04:12:10;;;;;;;34.40;21.13;;;15.90;99.90;;;;;;4953919;29;20207;-83
2021/06/15 04:14:38;;;;;;;36.27;22.93;;;15.80;99.90;;;;;;4967168;28;20229;-84
2021/06/15 04:17:07;;;;;;;40.23;24.23;;;15.80;99.90;;;;;;4966047;28;20207;-84
2021/06/15 04:19:42;;;;;;;32.67;22.47;;;15.80;99.90;;;;;;4968373;28;20240;-84
2021/06/15 04:22:13;;;;;;;33.00;22.40;;;15.80;99.90;;;;;;4955817;28;20267;-84
2021/06/15 04:24:44;;;;;;;38.40;23.50;;;15.90;99.90;;;;;;4958807;28;20217;-84
2021/06/15 04:27:11;;;;;;;37.53;23.00;;;15.90;99.90;;;;;;4953276;28;20258;-84
2021/06/15 04:29:38;;;;;;;35.40;22.77;;;15.90;99.90;;;;;;4953560;29;20242;-84
2021/06/15 04:32:09;;;;;;;33.33;21.93;;;15.90;99.90;;;;;;4953874;29;20234;-84
2021/06/15 04:34:41;;;;;;;33.63;21.33;;;16.00;99.90;;;;;;4963466;28;20207;-84
2021/06/15 04:37:12;;;;;;;33.90;20.77;;;15.90;99.90;;;;;;4970980;28;20708;-84
2021/06/15 04:39:47;;;;;;;29.57;20.90;;;16.00;99.90;;;;;;4958575;28;20293;-84
2021/06/15 04:42:17;;;;;;;34.13;21.00;;;16.00;99.90;;;;;;4971983;28;20372;-84
2021/06/15 04:44:48;;;;;;;33.57;20.97;;;16.00;99.90;;;;;;4972536;28;20230;-84
2021/06/15 04:47:23;;;;;;;32.37;20.40;;;16.10;99.90;;;;;;4972966;28;20700;-84
2021/06/15 04:49:57;;;;;;;32.63;21.43;;;16.10;99.90;;;;;;4962459;28;20344;-84
2021/06/15 04:52:27;;;;;;;31.90;21.23;;;16.20;99.90;;;;;;4964800;28;20261;-84
2021/06/15 04:54:57;;;;;;;33.00;21.43;;;16.30;99.90;;;;;;4957942;28;20266;-83
2021/06/15 04:57:26;;;;;;;36.33;22.83;;;16.30;99.90;;;;;;4965641;28;20202;-84
2021/06/15 04:59:56;;;;;;;29.87;21.87;;;16.20;99.90;;;;;;4953422;29;20230;-84
2021/06/15 05:02:24;;;;;;;32.37;22.57;;;16.20;99.90;;;;;;4953227;29;20303;-84
2021/06/15 05:04:51;;;;;;;36.63;21.80;;;16.20;99.90;;;;;;4970210;28;20230;-83
2021/06/15 05:07:20;;;;;;;32.33;21.87;;;16.30;99.90;;;;;;4971515;28;20236;-84
2021/06/15 05:09:50;;;;;;;29.10;20.70;;;16.40;99.90;;;;;;4963797;28;20688;-84
2021/06/15 05:12:20;;;;;;;31.80;21.57;;;16.40;99.90;;;;;;4958546;28;20277;-85
2021/06/15 05:14:49;;;;;;;30.80;20.73;;;16.30;99.90;;;;;;4956908;28;20203;-85
2021/06/15 05:17:20;;;;;;;33.60;21.30;;;16.40;99.90;;;;;;4953384;28;20199;-85
2021/06/15 05:19:47;;;;;;;32.73;21.50;;;16.40;99.90;;;;;;4953124;28;20676;-87
2021/06/15 05:22:21;;;;;;;33.67;21.47;;;16.50;99.90;;;;;;4970618;28;20661;-82
2021/06/15 05:24:54;;;;;;;33.40;21.57;;;16.70;99.90;;;;;;4958656;28;20253;-81
2021/06/15 05:27:23;;;;;;;33.23;21.27;;;16.90;99.90;;;;;;4954916;28;20613;-83
2021/06/15 05:29:50;;;;;;;36.53;21.80;;;16.90;99.90;;;;;;4968982;28;20233;-86
2021/06/15 05:32:18;;;;;;;30.60;21.00;;;16.90;99.90;;;;;;4949579;28;20261;-85
2021/06/15 05:34:45;;;;;;;30.33;20.23;;;16.90;99.90;;;;;;4974348;28;20249;-86
2021/06/15 05:37:12;;;;;;;26.43;19.30;;;16.90;99.90;;;;;;4970468;28;20195;-83
2021/06/15 05:39:41;;;;;;;26.17;18.90;;;16.90;99.90;;;;;;4972235;28;20230;-87
2021/06/15 05:42:11;;;;;;;24.40;19.40;;;16.80;99.90;;;;;;4974439;28;20225;-85
2021/06/15 05:44:39;;;;;;;26.97;19.00;;;16.70;99.90;;;;;;4984422;28;20683;-89
2021/06/15 05:47:06;;;;;;;24.13;18.57;;;16.80;99.90;;;;;;4959785;28;20227;-89
2021/06/15 05:49:34;;;;;;;27.90;18.93;;;17.00;99.90;;;;;;4958913;28;20222;-85
2021/06/15 05:52:04;;;;;;;25.27;18.43;;;17.30;99.90;;;;;;4968526;28;20587;-85
2021/06/15 05:54:32;;;;;;;23.50;18.43;;;17.30;99.90;;;;;;4978078;28;20191;-82
2021/06/15 05:56:59;;;;;;;23.70;18.07;;;17.30;99.90;;;;;;4955861;28;20301;-83
2021/06/15 05:59:27;;;;;;;22.87;18.07;;;17.50;99.90;;;;;;4977077;28;20262;-82
2021/06/15 06:01:55;;;;;;;21.70;18.13;;;17.50;99.90;;;;;;4976466;28;20312;-82
2021/06/15 06:04:24;;;;;;;23.20;17.07;;;17.20;99.90;;;;;;4972959;28;20242;-84
2021/06/15 06:09:37;;;;;;;27.83;18.37;;;17.20;99.90;;;;;;4964393;28;20792;-84
2021/06/15 06:12:05;;;;;;;24.20;17.10;;;17.20;99.90;;;;;;4975035;28;20226;-83
2021/06/15 06:14:35;;;;;;;26.77;18.10;;;17.40;99.90;;;;;;4968295;28;20242;-84
2021/06/15 06:17:03;;;;;;;33.90;19.67;;;17.70;99.90;;;;;;4968444;28;20199;-84
2021/06/15 06:19:33;;;;;;;25.70;19.33;;;18.00;99.90;;;;;;4967326;28;20206;-84
2021/06/15 06:22:00;;;;;;;26.40;17.97;;;17.90;99.90;;;;;;4969174;28;20690;-84
2021/06/15 06:24:28;;;;;;;25.27;18.80;;;17.90;99.90;;;;;;4960178;28;20262;-84
2021/06/15 06:26:55;;;;;;;26.00;18.20;;;17.80;99.90;;;;;;4970630;28;20720;-83
2021/06/15 06:29:22;;;;;;;23.87;17.93;;;18.10;99.90;;;;;;4956782;29;20199;-83
2021/06/15 06:31:51;;;;;;;22.57;17.77;;;18.20;99.90;;;;;;4958079;28;20210;-82
2021/06/15 06:34:18;;;;;;;23.97;16.53;;;18.20;99.90;;;;;;4974201;28;20629;-82
2021/06/15 06:36:45;;;;;;;21.80;16.40;;;18.20;99.90;;;;;;4955881;28;20238;-83
2021/06/15 06:39:12;;;;;;;31.33;17.23;;;18.10;99.90;;;;;;4957456;28;20234;-83
2021/06/15 06:41:39;;;;;;;21.97;16.90;;;18.00;99.90;;;;;;4969763;28;20290;-83
2021/06/15 06:44:07;;;;;;;32.97;19.37;;;18.10;99.90;;;;;;4972089;28;20290;-83
2021/06/15 06:46:34;;;;;;;25.43;15.87;;;18.20;99.90;;;;;;4974494;28;20226;-82
2021/06/15 06:49:02;;;;;;;20.07;16.13;;;19.10;99.90;;;;;;4969998;28;20246;-82
2021/06/15 06:51:30;;;;;;;22.10;16.80;;;19.60;99.90;;;;;;4974017;28;20326;-85
2021/06/15 06:53:59;;;;;;;20.30;16.23;;;19.90;99.90;;;;;;4973852;28;20285;-85
2021/06/15 06:56:26;;;;;;;18.23;15.05;;;20.20;99.90;;;;;;4973365;28;20213;-86
2021/06/15 06:58:53;;;;;;;18.92;16.52;;;20.60;99.90;;;;;;4973668;28;20286;-85
2021/06/15 07:01:21;;;;;;;18.58;15.18;;;20.10;99.90;;;;;;4974573;28;20555;-84
2021/06/15 07:03:50;;;;;;;17.15;14.80;;;20.30;99.90;;;;;;4966187;28;20672;-85
2021/06/15 07:06:18;;;;;;;15.68;13.93;;;20.20;99.90;;;;;;4966127;28;20248;-84
2021/06/15 07:08:55;;;;;;;19.30;15.02;;;20.40;99.90;;;;;;4973783;28;20585;-85
2021/06/15 07:11:22;;;;;;;18.25;15.10;;;20.30;99.90;;;;;;4959834;28;20340;-85
2021/06/15 07:13:49;;;;;;;18.35;15.38;;;20.30;99.90;;;;;;4970487;28;20214;-84
2021/06/15 07:16:16;;;;;;;17.20;13.80;;;20.80;99.90;;;;;;4971849;28;20237;-85
2021/06/15 07:18:43;;;;;;;19.15;13.35;;;21.70;99.90;;;;;;4964449;28;20203;-84
2021/06/15 07:21:11;;;;;;;15.95;14.07;;;22.40;99.90;;;;;;4966484;28;20278;-85
2021/06/15 07:23:40;;;;;;;14.25;12.82;;;22.80;99.90;;;;;;4965443;28;20261;-84
2021/06/15 07:26:08;;;;;;;19.90;12.80;;;22.90;99.90;;;;;;4954907;28;20254;-85
2021/06/15 07:28:35;;;;;;;17.55;13.13;;;22.20;99.90;;;;;;4955536;28;20218;-86
2021/06/15 07:31:02;;;;;;;16.08;11.88;;;21.60;99.90;;;;;;4956307;28;20233;-85
2021/06/15 07:33:29;;;;;;;15.45;12.73;;;21.50;99.90;;;;;;4963856;28;20692;-85
2021/06/15 07:35:56;;;;;;;13.98;12.48;;;21.80;99.90;;;;;;4962584;28;20214;-84
2021/06/15 07:38:23;;;;;;;19.25;12.07;;;22.80;99.90;;;;;;4961378;28;20266;-84
2021/06/15 07:40:51;;;;;;;22.63;13.48;;;23.70;99.90;;;;;;4960756;28;20220;-84
2021/06/15 07:43:18;;;;;;;12.35;11.00;;;23.80;99.90;;;;;;4968647;28;20207;-85
2021/06/15 07:45:45;;;;;;;11.57;10.10;;;24.70;99.90;;;;;;4961869;28;20641;-85
2021/06/15 07:48:12;;;;;;;16.73;11.88;;;24.50;99.90;;;;;;4964907;28;20620;-85
2021/06/15 07:50:42;;;;;;;14.52;12.68;;;24.00;99.90;;;;;;4962250;28;20810;-85
2021/06/15 07:53:09;;;;;;;15.15;12.85;;;23.60;99.90;;;;;;4961031;28;20258;-82
2021/06/15 07:55:36;;;;;;;12.85;11.55;;;23.50;99.90;;;;;;4966495;28;20672;-80
2021/06/15 07:58:05;;;;;;;11.43;10.32;;;24.00;99.90;;;;;;4963250;28;20286;-81
2021/06/15 08:00:32;;;;;;;12.73;10.57;;;23.90;99.90;;;;;;4961741;28;20612;-78
2021/06/15 08:02:59;;;;;;;13.00;11.77;;;23.70;99.90;;;;;;4966536;28;20590;-78
2021/06/15 08:05:26;;;;;;;14.23;12.20;;;22.70;99.90;;;;;;4962229;28;20234;-78
2021/06/15 08:07:54;;;;;;;12.73;11.43;;;22.80;99.90;;;;;;4969255;28;20289;-78
2021/06/15 08:10:21;;;;;;;12.20;10.20;;;23.30;99.90;;;;;;4954103;28;20215;-78
2021/06/15 08:12:49;;;;;;;12.95;11.35;;;23.90;99.90;;;;;;4968438;28;20253;-78
2021/06/15 08:15:19;;;;;;;12.45;11.02;;;24.20;99.90;;;;;;4964082;28;20230;-79
2021/06/15 08:17:46;;;;;;;14.52;12.50;;;23.90;99.90;;;;;;4961543;28;20980;-78
2021/06/15 08:20:14;;;;;;;13.68;12.27;;;24.20;99.90;;;;;;4958293;28;20280;-78
2021/06/15 08:22:41;;;;;;;11.90;10.70;;;23.70;99.90;;;;;;4957241;28;20613;-78
2021/06/15 08:25:09;;;;;;;12.52;10.68;;;24.00;99.90;;;;;;4965696;28;20225;-78
2021/06/15 08:27:36;;;;;;;14.35;12.00;;;23.90;99.90;;;;;;4964399;28;20309;-78
2021/06/15 08:30:04;;;;;;;11.70;10.60;;;24.00;99.90;;;;;;4965322;28;20732;-79
2021/06/15 08:32:33;;;;;;;15.55;11.85;;;24.60;99.90;;;;;;4959591;28;20294;-78
2021/06/15 08:35:00;;;;;;;12.85;11.52;;;25.20;99.90;;;;;;4971843;28;20580;-77
2021/06/15 08:37:26;;;;;;;14.43;11.60;;;25.10;99.90;;;;;;4958691;28;20297;-78
2021/06/15 08:39:53;;;;;;;13.32;11.48;;;25.10;99.90;;;;;;4970066;28;20568;-78
2021/06/15 08:42:20;;;;;;;13.45;11.23;;;25.60;99.90;;;;;;4965202;28;20234;-78
2021/06/15 08:44:47;;;;;;;15.38;12.63;;;25.40;99.90;;;;;;4963027;28;20237;-78
2021/06/15 08:47:16;;;;;;;12.00;10.80;;;24.60;99.90;;;;;;4964651;28;20775;-78
2021/06/15 08:49:45;;;;;;;12.50;11.25;;;25.50;99.90;;;;;;4954362;28;20735;-78
2021/06/15 08:52:13;;;;;;;13.07;11.77;;;26.20;99.90;;;;;;4953344;28;20755;-78
2021/06/15 08:54:40;;;;;;;14.05;10.98;;;26.70;99.90;;;;;;4961788;28;20367;-78
2021/06/15 08:57:08;;;;;;;13.20;11.85;;;25.80;99.90;;;;;;4958808;28;20231;-78
2021/06/15 08:59:35;;;;;;;12.90;11.60;;;26.00;99.90;;;;;;4967577;28;20233;-79
2021/06/15 09:02:06;;;;;;;14.00;12.57;;;25.70;99.90;;;;;;4974351;28;20198;-79
2021/06/15 09:04:33;;;;;;;13.63;12.07;;;25.40;99.90;;;;;;4976799;28;20321;-79
2021/06/15 09:07:02;;;;;;;13.55;12.13;;;25.70;99.90;;;;;;4972350;28;20234;-79
2021/06/15 09:09:40;;;;;;;14.38;11.73;;;25.80;99.90;;;;;;4964192;28;20241;-79
2021/06/15 09:12:11;;;;;;;15.05;12.35;;;26.40;99.90;;;;;;4960630;28;20234;-79
2021/06/15 09:14:47;;;;;;;13.45;11.70;;;26.30;99.90;;;;;;4966550;28;20919;-78
2021/06/15 09:17:18;;;;;;;14.00;12.52;;;26.30;99.90;;;;;;4975874;28;20206;-78
2021/06/15 09:19:46;;;;;;;15.10;12.65;;;26.30;99.90;;;;;;4975331;28;20199;-78
2021/06/15 09:22:25;;;;;;;14.23;11.73;;;25.80;99.90;;;;;;4972772;28;20301;-78
2021/06/15 09:24:53;;;;;;;15.90;12.23;;;25.80;99.90;;;;;;4962851;28;20230;-78
2021/06/15 09:27:21;;;;;;;12.60;11.10;;;25.80;99.90;;;;;;4962580;28;20245;-78
2021/06/15 09:29:49;;;;;;;12.93;10.95;;;26.60;99.90;;;;;;4962047;28;20202;-79
2021/06/15 09:32:20;;;;;;;12.82;11.52;;;27.20;99.90;;;;;;4950526;29;20212;-78
2021/06/15 09:34:57;;;;;;;13.80;12.38;;;27.70;99.90;;;;;;4964531;28;20249;-78
2021/06/15 09:37:30;;;;;;;13.60;10.13;;;28.00;99.90;;;;;;4960887;28;20222;-78
2021/06/15 09:39:58;;;;;;;13.02;10.68;;;28.90;99.90;;;;;;4962337;28;20238;-78
2021/06/15 09:42:25;;;;;;;11.13;9.75;;;29.70;99.90;;;;;;4966852;28;20230;-79
2021/06/15 09:44:52;;;;;;;10.90;9.80;;;29.70;99.90;;;;;;4971304;28;20199;-79
2021/06/15 09:47:24;;;;;;;10.07;9.07;;;30.00;99.90;;;;;;4971007;28;20318;-79
2021/06/15 09:49:51;;;;;;;10.98;8.13;;;30.10;99.90;;;;;;4959665;28;20255;-78
2021/06/15 09:52:21;;;;;;;12.63;8.98;;;31.10;99.90;;;;;;4970326;28;20234;-79
2021/06/15 09:54:51;;;;;;;10.07;8.90;;;30.50;99.90;;;;;;4957004;28;20227;-79
2021/06/15 09:57:21;;;;;;;10.10;8.88;;;30.00;99.90;;;;;;4959584;28;20249;-79
2021/06/15 10:00:10;;;;;;;9.93;8.93;;;30.70;99.90;;;;;;4974982;28;20207;-78
2021/06/15 10:02:50;;;;;;;9.00;8.07;;;31.30;99.90;;;;;;4964649;28;20334;-80
2021/06/15 10:05:36;;;;;;;8.77;7.93;;;31.60;99.90;;;;;;4963376;28;20210;-80
2021/06/15 10:08:05;;;;;;;7.70;6.90;;;31.20;99.90;;;;;;4973522;28;20321;-80
2021/06/15 10:10:35;;;;;;;7.75;6.93;;;31.20;99.90;;;;;;4964440;28;20258;-81
2021/06/15 10:13:03;;;;;;;7.72;6.95;;;31.70;99.90;;;;;;4963522;28;20227;-80
2021/06/15 10:15:32;;;;;;;9.60;7.70;;;31.90;99.90;;;;;;4954070;28;20206;-80
2021/06/15 10:18:00;;;;;;;13.65;6.68;;;31.60;99.90;;;;;;4961529;28;20246;-79
2021/06/15 10:20:29;;;;;;;11.18;7.97;;;30.90;99.90;;;;;;4970895;28;20238;-82
2021/06/15 10:22:57;;;;;;;7.32;6.63;;;30.80;99.90;;;;;;4968993;28;20231;-82
2021/06/15 10:25:26;;;;;;;12.05;6.80;;;32.10;99.90;;;;;;4975987;28;20234;-81
2021/06/15 10:27:56;;;;;;;8.43;6.32;;;32.40;99.90;;;;;;4964383;28;20359;-80
2021/06/15 10:30:30;;;;;;;7.50;6.68;;;31.80;99.90;;;;;;4956886;28;20241;-82
2021/06/15 10:32:58;;;;;;;7.93;6.35;;;31.40;99.90;;;;;;4955821;28;20266;-81
2021/06/15 10:35:46;;;;;;;7.20;5.80;;;32.10;99.90;;;;;;4975811;28;20198;-83
2021/06/15 10:38:17;;;;;;;10.40;6.50;;;32.30;99.90;;;;;;4962793;28;20222;-85
2021/06/15 10:40:55;;;;;;;11.10;7.05;;;32.60;99.90;;;;;;4975077;28;20215;-83
2021/06/15 10:43:44;;;;;;;7.53;6.68;;;31.60;99.90;;;;;;4964952;28;20199;-83
2021/06/15 10:46:35;;;;;;;6.75;5.88;;;31.60;99.90;;;;;;4966392;28;20262;-83
2021/06/15 10:49:05;;;;;;;11.75;6.35;;;31.80;99.90;;;;;;4963262;28;20222;-83
2021/06/15 10:51:36;;;;;;;7.20;5.43;;;31.60;99.90;;;;;;4975497;28;20234;-83
2021/06/15 10:54:25;;;;;;;6.55;5.90;;;32.40;99.90;;;;;;4967913;28;20230;-84
2021/06/15 10:57:21;;;;;;;6.68;5.30;;;33.90;99.90;;;;;;4961886;28;20290;-83
2021/06/15 11:00:11;;;;;;;7.50;5.55;;;33.30;99.90;;;;;;4957272;28;20199;-84
2021/06/15 11:02:38;;;;;;;6.80;4.95;;;32.30;99.90;;;;;;4967699;28;20214;-84
2021/06/15 11:05:37;;;;;;;7.28;4.72;;;30.40;99.90;;;;;;4971127;28;20294;-83
2021/06/15 11:08:22;;;;;;;5.35;4.82;;;29.40;99.90;;;;;;4971408;28;20325;-83
2021/06/15 11:10:52;;;;;;;6.65;5.53;;;30.30;99.90;;;;;;4961123;28;20199;-82
2021/06/15 11:13:29;;;;;;;7.57;5.50;;;30.00;99.90;;;;;;4963881;28;20258;-82
2021/06/15 11:16:02;;;;;;;5.78;4.80;;;28.80;99.90;;;;;;4973893;28;20687;-82
2021/06/15 11:18:29;;;;;;;4.40;4.00;;;28.80;99.90;;;;;;4968917;28;20558;-82
2021/06/15 11:20:56;;;;;;;4.60;4.20;;;30.80;99.90;;;;;;4965729;28;20257;-83
2021/06/15 11:23:28;;;;;;;4.32;3.90;;;32.30;99.90;;;;;;4965124;28;20203;-82
2021/06/15 11:25:59;;;;;;;4.82;4.10;;;32.00;99.90;;;;;;4967423;28;20790;-82
2021/06/15 11:28:47;;;;;;;5.68;4.00;;;31.80;99.90;;;;;;4974364;28;20229;-81
2021/06/15 11:31:37;;;;;;;5.68;4.00;;;33.30;99.90;;;;;;4968067;28;20214;-81
2021/06/15 11:34:26;;;;;;;4.18;3.58;;;33.30;99.90;;;;;;4972664;28;20286;-82
2021/06/15 11:36:59;;;;;;;4.10;3.70;;;32.60;99.90;;;;;;4962359;28;20289;-85
2021/06/15 11:39:35;;;;;;;5.28;4.22;;;31.80;99.90;;;;;;4959655;28;20216;-82
2021/06/15 11:42:23;;;;;;;3.92;3.60;;;31.40;99.90;;;;;;4967224;28;20205;-82
2021/06/15 11:45:15;;;;;;;4.97;3.60;;;32.40;99.90;;;;;;4964544;28;20202;-82
2021/06/15 11:47:47;;;;;;;3.15;2.90;;;31.90;99.90;;;;;;4964599;28;20231;-82
2021/06/15 11:50:27;;;;;;;3.45;2.67;;;32.30;99.90;;;;;;4967760;28;20235;-82
2021/06/15 11:53:01;;;;;;;3.45;2.80;;;34.20;99.90;;;;;;4968994;28;20198;-81
2021/06/15 11:55:32;;;;;;;3.47;2.92;;;33.60;99.90;;;;;;4957648;28;20203;-82
2021/06/15 11:58:05;;;;;;;5.60;3.08;;;35.00;99.90;;;;;;4969890;28;20226;-87
2021/06/15 12:00:34;;;;;;;3.50;3.00;;;34.60;99.90;;;;;;4950779;28;20194;-87
2021/06/15 12:03:05;;;;;;;5.13;2.75;;;33.70;99.90;;;;;;4971993;28;20202;-88
2021/06/15 12:05:33;;;;;;;2.55;2.35;;;33.80;99.90;;;;;;4968315;28;20273;-88
2021/06/15 12:08:00;;;;;;;2.63;2.42;;;33.30;99.90;;;;;;4965163;28;20310;-88
2021/06/15 12:10:28;;;;;;;3.33;2.53;;;33.50;99.90;;;;;;4963679;28;20202;-88
2021/06/15 12:12:56;;;;;;;2.95;2.45;;;33.60;99.90;;;;;;4948678;28;20202;-88
2021/06/15 12:15:28;;;;;;;4.10;2.70;;;34.50;99.90;;;;;;4966024;28;20207;-89
2021/06/15 12:17:55;;;;;;;3.40;2.60;;;34.70;99.90;;;;;;4963784;28;20198;-89
2021/06/15 12:20:26;;;;;;;3.17;2.67;;;32.90;99.90;;;;;;4973502;28;20214;-88
2021/06/15 12:22:53;;;;;;;3.63;2.50;;;33.60;99.90;;;;;;4973525;28;20206;-88
2021/06/15 12:25:28;;;;;;;3.55;2.35;;;34.30;99.90;;;;;;4959410;28;20684;-88
2021/06/15 12:28:09;;;;;;;3.25;2.72;;;33.80;99.90;;;;;;4973748;28;20216;-89
2021/06/15 12:30:39;;;;;;;3.30;2.38;;;33.00;99.90;;;;;;4961035;28;20206;-88
2021/06/15 12:33:06;;;;;;;2.72;2.53;;;32.90;99.90;;;;;;4961314;28;20199;-88
2021/06/15 12:35:35;;;;;;;3.13;2.35;;;33.00;99.70;;;;;;4965759;28;20207;-89
2021/06/15 12:38:13;;;;;;;4.47;3.25;;;32.20;99.90;;;;;;4963869;28;20723;-88
2021/06/15 12:40:41;;;;;;;2.40;2.20;;;32.90;99.90;;;;;;4962845;28;20210;-87
2021/06/15 12:43:08;;;;;;;5.22;2.53;;;33.90;97.60;;;;;;4970398;28;20195;-86
2021/06/15 12:45:37;;;;;;;3.70;2.28;;;34.60;98.20;;;;;;4973000;28;20210;-88
2021/06/15 12:48:20;;;;;;;3.90;2.40;;;34.00;98.90;;;;;;4952838;28;20233;-88
2021/06/15 12:51:00;;;;;;;3.45;2.55;;;32.90;99.90;;;;;;4965978;28;20242;-87